P/v Golden Gate — WDE5665 — position and weather

sailwx.info

Track history (hours):
 
Tides and Currents Weather Stations Pressure Air Temp Water Temp Dewpoint Dewpoint Depression Visibility Wind Speed Wind Dir Waves Ship Positions

P/v Golden Gate

Owner: San Francisco Bar Pilots Benevolent and Protective, San Francisco, CA. More information available from US FCC via Universal Licensing System and Coast Guard Vessel Documentation Center.

Last reported at 2016-Jul-02 06:33 UTC. Time now 2016-Jul-02 07:36 UTC.
Position N 37°47' W 122°33'.

Length 23 m; draft 2 m.

Type: Pilot. MMSI: 367370010.

Date/timePositionNaut miles runAvg speedWind from/ knotsBaromVisibWave heightAir tempDewpointWater temp
2016-Jul-02 06:33N 37°47' W 122°33'5 2.4
2016-Jul-02 04:33N 37°49' W 122°27'3 1.0
2016-Jul-02 01:32N 37°48' W 122°24'3 3.3
2016-Jul-02 00:33N 37°48' W 122°20'9 4.4
2016-Jul-01 22:34N 37°48' W 122°31'6 5.6
2016-Jul-01 21:33N 37°48' W 122°24'3 0.5
2016-Jul-01 14:33N 37°46' W 122°21'2 2.1
2016-Jul-01 13:33N 37°48' W 122°20'3 1.2
2016-Jul-01 11:15N 37°48' W 122°24'0 0.1
2016-Jul-01 06:34N 37°48' W 122°23'1 0.1
2016-Jun-30 21:12N 37°48' W 122°24'1 1.8
2016-Jun-30 20:33N 37°49' W 122°25'2 1.8
2016-Jun-30 19:34N 37°49' W 122°27'6 6.2
2016-Jun-30 18:34N 37°46' W 122°20'9 3.1
2016-Jun-30 15:34N 37°48' W 122°32'4 4.5
2016-Jun-30 14:34N 37°49' W 122°26'6 6.0
2016-Jun-30 13:34N 37°45' W 122°21'4 2.6
2016-Jun-30 12:06N 37°48' W 122°24'2 4.2
2016-Jun-30 11:33N 37°49' W 122°26'5 4.9
2016-Jun-30 10:30N 37°49' W 122°20'1 0.8
2016-Jun-30 09:33N 37°48' W 122°20'3 2.8
2016-Jun-30 08:29N 37°48' W 122°24'0 0.0
2016-Jun-30 07:33N 37°48' W 122°24'1211.0
2016-Jun-30 06:30N 37°46' W 122°38'12 4.8
2016-Jun-30 04:05N 37°48' W 122°24'3 6.1
2016-Jun-30 03:34N 37°46' W 122°21'5 5.3
2016-Jun-30 02:33N 37°49' W 122°26'2 1.1
2016-Jun-30 00:32N 37°48' W 122°24'0 0.1
2016-Jun-29 23:31N 37°48' W 122°24'4 3.6
2016-Jun-29 22:33N 37°46' W 122°20'1 0.2
2016-Jun-29 18:34N 37°46' W 122°21'3 2.6
2016-Jun-29 17:22N 37°48' W 122°24'1 1.7
2016-Jun-29 16:33N 37°47' W 122°23'6 5.6
2016-Jun-29 15:34N 37°49' W 122°29'8 7.9
2016-Jun-29 14:34N 37°48' W 122°20'2 1.5
2016-Jun-29 13:34N 37°48' W 122°21'2 0.4
2016-Jun-29 09:33N 37°48' W 122°23'2 1.0
2016-Jun-29 07:34N 37°48' W 122°21'1 1.1
2016-Jun-29 06:34N 37°48' W 122°19'3 1.4
2016-Jun-29 04:10N 37°48' W 122°24'3 5.0
2016-Jun-29 03:33N 37°51' W 122°26'3 3.0
2016-Jun-29 02:33N 37°48' W 122°24'4 3.5
2016-Jun-29 01:31N 37°48' W 122°19'1 0.6
2016-Jun-29 00:34N 37°48' W 122°20'3 2.8
2016-Jun-28 23:29N 37°48' W 122°24'0 0.0
2016-Jun-28 22:09N 37°48' W 122°24'5 8.6
2016-Jun-28 21:33N 37°48' W 122°17'3 2.7
2016-Jun-28 20:33N 37°46' W 122°20'4 3.5
2016-Jun-28 19:33N 37°48' W 122°24'6 5.6
2016-Jun-28 18:33N 37°48' W 122°31'4 4.1
2016-Jun-28 17:34N 37°49' W 122°26'3 1.7
2016-Jun-28 15:33N 37°47' W 122°22'2 1.5
2016-Jun-28 14:33N 37°48' W 122°21'1 1.2
2016-Jun-28 13:34N 37°48' W 122°19'2 2.1
2016-Jun-28 12:33N 37°46' W 122°21'2 2.0
2016-Jun-28 11:34N 37°48' W 122°20'2 2.5
2016-Jun-28 10:34N 37°46' W 122°22'2 0.6
2016-Jun-28 07:15N 37°48' W 122°24'2 2.9
2016-Jun-28 06:33N 37°48' W 122°21'1 0.2
2016-Jun-28 00:34N 37°47' W 122°21'1 1.1
2016-Jun-27 23:33N 37°47' W 122°23'4 1.2
2016-Jun-27 20:33N 37°44' W 122°20'5 4.1
2016-Jun-27 19:20N 37°48' W 122°24'1 1.3
2016-Jun-27 18:33N 37°49' W 122°23'1 1.0
2016-Jun-27 17:33N 37°48' W 122°24'1 0.7
2016-Jun-27 15:33N 37°49' W 122°25'6 6.1
2016-Jun-27 14:33N 37°48' W 122°18'2 1.8
2016-Jun-27 13:34N 37°48' W 122°20'3 0.8
2016-Jun-27 09:28N 37°48' W 122°24'0 0.0
2016-Jun-27 07:33N 37°48' W 122°24'1 0.1
2016-Jun-27 02:09N 37°48' W 122°23'3 4.8
2016-Jun-27 01:33N 37°46' W 122°21'3 1.0
2016-Jun-26 22:33N 37°48' W 122°24'3 2.8
2016-Jun-26 21:34N 37°46' W 122°21'1414.1
2016-Jun-26 20:33N 37°45' W 122°39'1310.4
2016-Jun-26 19:20N 37°48' W 122°24'4 2.4
2016-Jun-26 17:33N 37°45' W 122°20'4 4.3
2016-Jun-26 16:31N 37°48' W 122°24'4 3.9
2016-Jun-26 15:33N 37°48' W 122°19'4 1.1
2016-Jun-26 12:13N 37°48' W 122°24'0 0.4
2016-Jun-26 11:34N 37°48' W 122°24'3 2.8
2016-Jun-26 10:34N 37°49' W 122°27'4 4.1
2016-Jun-26 09:33N 37°48' W 122°32'8 7.8
2016-Jun-26 08:34N 37°47' W 122°22'2 1.5
2016-Jun-26 07:33N 37°48' W 122°24'0 0.1
2016-Jun-26 04:33N 37°48' W 122°23'2 2.4
2016-Jun-26 03:34N 37°49' W 122°26'2 1.6
2016-Jun-26 02:21N 37°48' W 122°24'3 3.8
2016-Jun-26 01:33N 37°48' W 122°20'3 2.8
2016-Jun-26 00:34N 37°45' W 122°20'4 3.9
2016-Jun-25 23:26N 37°48' W 122°24'1 1.1
2016-Jun-25 22:33N 37°48' W 122°23'2 2.5
2016-Jun-25 21:33N 37°48' W 122°20'5 0.8
2016-Jun-25 15:33N 37°49' W 122°25'1 1.1
2016-Jun-25 14:24N 37°48' W 122°24'3 3.2
2016-Jun-25 13:34N 37°47' W 122°21'3 1.2
2016-Jun-25 11:24N 37°48' W 122°24'0 0.0
2016-Jun-25 10:22N 37°48' W 122°24'5 6.5
2016-Jun-25 09:33N 37°48' W 122°30'5 2.6
2016-Jun-25 07:32N 37°48' W 122°24'0 0.0
2016-Jun-25 05:24N 37°48' W 122°24'2 0.8
2016-Jun-25 02:34N 37°48' W 122°21'2 2.3
2016-Jun-25 01:33N 37°48' W 122°24'0 0.0
2016-Jun-24 23:25N 37°48' W 122°24'4 1.1
2016-Jun-24 19:34N 37°45' W 122°21'4 4.2
2016-Jun-24 18:34N 37°48' W 122°24'3 3.3
2016-Jun-24 17:33N 37°48' W 122°20'3 0.5
2016-Jun-24 10:05N 37°48' W 122°24'5 3.0
2016-Jun-24 08:33N 37°45' W 122°20'1 0.1
2016-Jun-24 02:33N 37°45' W 122°21'4 3.8
2016-Jun-24 01:32N 37°48' W 122°22'1 1.3
2016-Jun-24 00:33N 37°48' W 122°20'3 2.7
2016-Jun-23 23:31N 37°48' W 122°24'3 2.8
2016-Jun-23 22:33N 37°47' W 122°21'2 1.0
2016-Jun-23 20:33N 37°45' W 122°21'3 0.7
2016-Jun-23 15:33N 37°48' W 122°20'3 2.8
2016-Jun-23 14:25N 37°48' W 122°24'1 1.4
2016-Jun-23 13:30N 37°49' W 122°25'1 0.3
2016-Jun-23 09:21N 37°48' W 122°24'4 4.6
2016-Jun-23 08:33N 37°45' W 122°21'0 0.1
2016-Jun-23 03:33N 37°46' W 122°21'2 2.4
2016-Jun-23 02:33N 37°48' W 122°19'1 0.5
2016-Jun-23 00:33N 37°47' W 122°20'2 1.5
2016-Jun-22 23:33N 37°46' W 122°21'1 1.0
2016-Jun-22 22:33N 37°45' W 122°21'4 1.7
2016-Jun-22 20:04N 37°48' W 122°24'1 1.2
2016-Jun-22 19:34N 37°48' W 122°23'0 0.2
2016-Jun-22 17:34N 37°48' W 122°23'3 3.0
2016-Jun-22 16:33N 37°45' W 122°21'3 1.5
2016-Jun-22 14:34N 37°48' W 122°23'1110.3
2016-Jun-22 13:27N 37°46' W 122°37'13 1.9
2016-Jun-22 06:34N 37°48' W 122°21'  
Track history (hours):
 
Tides and Currents Weather Stations Pressure Air Temp Water Temp Dewpoint Dewpoint Depression Visibility Wind Speed Wind Dir Waves Ship Positions

P/v Golden Gate

Owner: San Francisco Bar Pilots Benevolent and Protective, San Francisco, CA. More information available from US FCC via Universal Licensing System and Coast Guard Vessel Documentation Center.

Last reported at 2016-Jul-02 06:33 UTC. Time now 2016-Jul-02 07:36 UTC.
Position N 37°47' W 122°33'.

Length 23 m; draft 2 m.

Type: Pilot. MMSI: 367370010.

Date/timePositionNaut miles runAvg speedWind from/ knotsBaromVisibWave heightAir tempDewpointWater temp
2016-Jul-02 06:33N 37°47' W 122°33'5 2.4
2016-Jul-02 04:33N 37°49' W 122°27'3 1.0
2016-Jul-02 01:32N 37°48' W 122°24'3 3.3
2016-Jul-02 00:33N 37°48' W 122°20'9 4.4
2016-Jul-01 22:34N 37°48' W 122°31'6 5.6
2016-Jul-01 21:33N 37°48' W 122°24'3 0.5
2016-Jul-01 14:33N 37°46' W 122°21'2 2.1
2016-Jul-01 13:33N 37°48' W 122°20'3 1.2
2016-Jul-01 11:15N 37°48' W 122°24'0 0.1
2016-Jul-01 06:34N 37°48' W 122°23'1 0.1
2016-Jun-30 21:12N 37°48' W 122°24'1 1.8
2016-Jun-30 20:33N 37°49' W 122°25'2 1.8
2016-Jun-30 19:34N 37°49' W 122°27'6 6.2
2016-Jun-30 18:34N 37°46' W 122°20'9 3.1
2016-Jun-30 15:34N 37°48' W 122°32'4 4.5
2016-Jun-30 14:34N 37°49' W 122°26'6 6.0
2016-Jun-30 13:34N 37°45' W 122°21'4 2.6
2016-Jun-30 12:06N 37°48' W 122°24'2 4.2
2016-Jun-30 11:33N 37°49' W 122°26'5 4.9
2016-Jun-30 10:30N 37°49' W 122°20'1 0.8
2016-Jun-30 09:33N 37°48' W 122°20'3 2.8
2016-Jun-30 08:29N 37°48' W 122°24'0 0.0
2016-Jun-30 07:33N 37°48' W 122°24'1211.0
2016-Jun-30 06:30N 37°46' W 122°38'12 4.8
2016-Jun-30 04:05N 37°48' W 122°24'3 6.1
2016-Jun-30 03:34N 37°46' W 122°21'5 5.3
2016-Jun-30 02:33N 37°49' W 122°26'2 1.1
2016-Jun-30 00:32N 37°48' W 122°24'0 0.1
2016-Jun-29 23:31N 37°48' W 122°24'4 3.6
2016-Jun-29 22:33N 37°46' W 122°20'1 0.2
2016-Jun-29 18:34N 37°46' W 122°21'3 2.6
2016-Jun-29 17:22N 37°48' W 122°24'1 1.7
2016-Jun-29 16:33N 37°47' W 122°23'6 5.6
2016-Jun-29 15:34N 37°49' W 122°29'8 7.9
2016-Jun-29 14:34N 37°48' W 122°20'2 1.5
2016-Jun-29 13:34N 37°48' W 122°21'2 0.4
2016-Jun-29 09:33N 37°48' W 122°23'2 1.0
2016-Jun-29 07:34N 37°48' W 122°21'1 1.1
2016-Jun-29 06:34N 37°48' W 122°19'3 1.4
2016-Jun-29 04:10N 37°48' W 122°24'3 5.0
2016-Jun-29 03:33N 37°51' W 122°26'3 3.0
2016-Jun-29 02:33N 37°48' W 122°24'4 3.5
2016-Jun-29 01:31N 37°48' W 122°19'1 0.6
2016-Jun-29 00:34N 37°48' W 122°20'3 2.8
2016-Jun-28 23:29N 37°48' W 122°24'0 0.0
2016-Jun-28 22:09N 37°48' W 122°24'5 8.6
2016-Jun-28 21:33N 37°48' W 122°17'3 2.7
2016-Jun-28 20:33N 37°46' W 122°20'4 3.5
2016-Jun-28 19:33N 37°48' W 122°24'6 5.6
2016-Jun-28 18:33N 37°48' W 122°31'4 4.1
2016-Jun-28 17:34N 37°49' W 122°26'3 1.7
2016-Jun-28 15:33N 37°47' W 122°22'2 1.5
2016-Jun-28 14:33N 37°48' W 122°21'1 1.2
2016-Jun-28 13:34N 37°48' W 122°19'2 2.1
2016-Jun-28 12:33N 37°46' W 122°21'2 2.0
2016-Jun-28 11:34N 37°48' W 122°20'2 2.5
2016-Jun-28 10:34N 37°46' W 122°22'2 0.6
2016-Jun-28 07:15N 37°48' W 122°24'2 2.9
2016-Jun-28 06:33N 37°48' W 122°21'1 0.2
2016-Jun-28 00:34N 37°47' W 122°21'1 1.1
2016-Jun-27 23:33N 37°47' W 122°23'4 1.2
2016-Jun-27 20:33N 37°44' W 122°20'5 4.1
2016-Jun-27 19:20N 37°48' W 122°24'1 1.3
2016-Jun-27 18:33N 37°49' W 122°23'1 1.0
2016-Jun-27 17:33N 37°48' W 122°24'1 0.7
2016-Jun-27 15:33N 37°49' W 122°25'6 6.1
2016-Jun-27 14:33N 37°48' W 122°18'2 1.8
2016-Jun-27 13:34N 37°48' W 122°20'3 0.8
2016-Jun-27 09:28N 37°48' W 122°24'0 0.0
2016-Jun-27 07:33N 37°48' W 122°24'1 0.1
2016-Jun-27 02:09N 37°48' W 122°23'3 4.8
2016-Jun-27 01:33N 37°46' W 122°21'3 1.0
2016-Jun-26 22:33N 37°48' W 122°24'3 2.8
2016-Jun-26 21:34N 37°46' W 122°21'1414.1
2016-Jun-26 20:33N 37°45' W 122°39'1310.4
2016-Jun-26 19:20N 37°48' W 122°24'4 2.4
2016-Jun-26 17:33N 37°45' W 122°20'4 4.3
2016-Jun-26 16:31N 37°48' W 122°24'4 3.9
2016-Jun-26 15:33N 37°48' W 122°19'4 1.1
2016-Jun-26 12:13N 37°48' W 122°24'0 0.4
2016-Jun-26 11:34N 37°48' W 122°24'3 2.8
2016-Jun-26 10:34N 37°49' W 122°27'4 4.1
2016-Jun-26 09:33N 37°48' W 122°32'8 7.8
2016-Jun-26 08:34N 37°47' W 122°22'2 1.5
2016-Jun-26 07:33N 37°48' W 122°24'0 0.1
2016-Jun-26 04:33N 37°48' W 122°23'2 2.4
2016-Jun-26 03:34N 37°49' W 122°26'2 1.6
2016-Jun-26 02:21N 37°48' W 122°24'3 3.8
2016-Jun-26 01:33N 37°48' W 122°20'3 2.8
2016-Jun-26 00:34N 37°45' W 122°20'4 3.9
2016-Jun-25 23:26N 37°48' W 122°24'1 1.1
2016-Jun-25 22:33N 37°48' W 122°23'2 2.5
2016-Jun-25 21:33N 37°48' W 122°20'5 0.8
2016-Jun-25 15:33N 37°49' W 122°25'1 1.1
2016-Jun-25 14:24N 37°48' W 122°24'3 3.2
2016-Jun-25 13:34N 37°47' W 122°21'3 1.2
2016-Jun-25 11:24N 37°48' W 122°24'0 0.0
2016-Jun-25 10:22N 37°48' W 122°24'5 6.5
2016-Jun-25 09:33N 37°48' W 122°30'5 2.6
2016-Jun-25 07:32N 37°48' W 122°24'0 0.0
2016-Jun-25 05:24N 37°48' W 122°24'2 0.8
2016-Jun-25 02:34N 37°48' W 122°21'2 2.3
2016-Jun-25 01:33N 37°48' W 122°24'0 0.0
2016-Jun-24 23:25N 37°48' W 122°24'4 1.1
2016-Jun-24 19:34N 37°45' W 122°21'4 4.2
2016-Jun-24 18:34N 37°48' W 122°24'3 3.3
2016-Jun-24 17:33N 37°48' W 122°20'3 0.5
2016-Jun-24 10:05N 37°48' W 122°24'5 3.0
2016-Jun-24 08:33N 37°45' W 122°20'1 0.1
2016-Jun-24 02:33N 37°45' W 122°21'4 3.8
2016-Jun-24 01:32N 37°48' W 122°22'1 1.3
2016-Jun-24 00:33N 37°48' W 122°20'3 2.7
2016-Jun-23 23:31N 37°48' W 122°24'3 2.8
2016-Jun-23 22:33N 37°47' W 122°21'2 1.0
2016-Jun-23 20:33N 37°45' W 122°21'3 0.7
2016-Jun-23 15:33N 37°48' W 122°20'3 2.8
2016-Jun-23 14:25N 37°48' W 122°24'1 1.4
2016-Jun-23 13:30N 37°49' W 122°25'1 0.3
2016-Jun-23 09:21N 37°48' W 122°24'4 4.6
2016-Jun-23 08:33N 37°45' W 122°21'0 0.1
2016-Jun-23 03:33N 37°46' W 122°21'2 2.4
2016-Jun-23 02:33N 37°48' W 122°19'1 0.5
2016-Jun-23 00:33N 37°47' W 122°20'2 1.5
2016-Jun-22 23:33N 37°46' W 122°21'1 1.0
2016-Jun-22 22:33N 37°45' W 122°21'4 1.7
2016-Jun-22 20:04N 37°48' W 122°24'1 1.2
2016-Jun-22 19:34N 37°48' W 122°23'0 0.2
2016-Jun-22 17:34N 37°48' W 122°23'3 3.0
2016-Jun-22 16:33N 37°45' W 122°21'3 1.5
2016-Jun-22 14:34N 37°48' W 122°23'1110.3
2016-Jun-22 13:27N 37°46' W 122°37'13 1.9
2016-Jun-22 06:34N 37°48' W 122°21'  

Dump ship's entire track history